Time;durP1;ratioP1;P1;durP2;ratioP2;P2;SDS_P1;SDS_P2;PMS_P1;PMS_P2;Temp;Humidity;BMP_temperature;BMP_pressure;BME280_temperature;BME280_humidity;BME280_pressure;Samples;Min_cycle;Max_cycle;Signal;HPM_P1;HPM_P2
2020/12/14 00:01:01;;;;;;;12.50;7.68;;;;;;;20.85;40.34;99143.56;4992633;28;20034;-74
2020/12/14 00:03:27;;;;;;;11.13;7.15;;;;;;;20.86;40.21;99123.38;4992302;28;20037;-78
2020/12/14 00:05:52;;;;;;;12.07;7.75;;;;;;;20.82;40.26;99125.25;4992405;28;20105;-73
2020/12/14 00:08:17;;;;;;;10.02;7.22;;;;;;;20.83;40.24;99125.22;4990967;28;20046;-79
2020/12/14 00:10:43;;;;;;;9.15;6.50;;;;;;;20.83;40.17;99127.84;4992362;28;20041;-74
2020/12/14 00:13:09;;;;;;;9.43;6.80;;;;;;;20.82;40.20;99131.41;4992329;28;20117;-74
2020/12/14 00:15:34;;;;;;;9.40;6.25;;;;;;;20.83;40.35;99125.22;4991596;28;20581;-80
2020/12/14 00:18:00;;;;;;;10.27;6.80;;;;;;;20.80;40.26;99132.38;4991995;28;20034;-73
2020/12/14 00:20:25;;;;;;;10.02;6.97;;;;;;;20.81;40.37;99123.53;4991951;28;20403;-76
2020/12/14 00:22:50;;;;;;;9.45;6.05;;;;;;;20.80;40.27;99117.44;4995342;28;20034;-73
2020/12/14 00:25:16;;;;;;;11.18;6.47;;;;;;;20.79;40.45;99128.00;4996174;28;20034;-75
2020/12/14 00:27:41;;;;;;;10.27;6.25;;;;;;;20.79;40.17;99128.88;4996173;28;20042;-74
2020/12/14 00:30:07;;;;;;;8.52;6.35;;;;;;;20.82;40.27;99125.25;4995893;28;20116;-80
2020/12/14 00:32:32;;;;;;;9.30;5.63;;;;;;;20.79;40.43;99114.84;4996056;28;20038;-75
2020/12/14 00:34:57;;;;;;;9.52;6.13;;;;;;;20.80;40.21;99116.56;4996257;28;20050;-79
2020/12/14 00:37:23;;;;;;;8.13;5.78;;;;;;;20.78;40.24;99100.00;5001390;28;20035;-73
2020/12/14 00:39:48;;;;;;;7.97;5.60;;;;;;;20.75;40.52;99105.34;5004473;28;20039;-74
2020/12/14 00:42:14;;;;;;;9.50;5.90;;;;;;;20.79;40.38;99105.19;4995723;28;20035;-74
2020/12/14 00:44:39;;;;;;;9.52;6.28;;;;;;;20.80;40.40;99098.13;4995800;28;20065;-76
2020/12/14 00:47:04;;;;;;;7.72;5.10;;;;;;;20.80;40.19;99092.88;4995654;28;20776;-75
2020/12/14 00:49:30;;;;;;;8.77;5.20;;;;;;;20.79;40.33;99096.41;4996089;28;20038;-74
2020/12/14 00:51:55;;;;;;;8.70;5.40;;;;;;;20.78;40.39;99095.56;5012506;28;20076;-73
2020/12/14 00:54:21;;;;;;;8.20;5.53;;;;;;;20.77;40.35;99091.22;5015160;28;20080;-75
2020/12/14 00:56:46;;;;;;;7.88;5.35;;;;;;;20.78;40.15;99092.09;5015184;28;20038;-74
2020/12/14 00:59:11;;;;;;;7.97;5.25;;;;;;;20.80;40.15;99084.97;5015565;28;20061;-75
2020/12/14 01:01:37;;;;;;;7.40;5.07;;;;;;;20.77;40.33;99093.84;5015048;28;20041;-76
2020/12/14 01:04:03;;;;;;;6.88;4.78;;;;;;;20.78;40.12;99086.84;5015142;28;20092;-73
2020/12/14 01:06:28;;;;;;;8.32;4.63;;;;;;;20.77;40.20;99087.75;5015036;28;20604;-73
2020/12/14 01:08:53;;;;;;;7.10;4.63;;;;;;;20.76;40.26;99078.97;5015128;28;20100;-76
2020/12/14 01:11:27;;;;;;;7.13;4.45;;;;;;;20.76;40.34;99065.81;5015171;28;20109;-74
2020/12/14 01:13:52;;;;;;;5.57;4.20;;;;;;;20.74;40.21;99072.03;5014533;28;20499;-74
2020/12/14 01:16:20;;;;;;;6.55;4.10;;;;;;;20.75;40.42;99079.03;5014614;28;20034;-76
2020/12/14 01:18:46;;;;;;;7.13;4.00;;;;;;;20.74;40.43;99080.78;5015039;28;20410;-75
2020/12/14 01:21:11;;;;;;;7.22;4.50;;;;;;;20.76;40.25;99083.41;5014882;28;20512;-75
2020/12/14 01:23:37;;;;;;;5.82;4.00;;;;;;;20.77;40.31;99077.22;5009652;28;20026;-79
2020/12/14 01:26:02;;;;;;;7.18;4.22;;;;;;;20.75;40.22;99076.41;4994961;28;20034;-74
2020/12/14 01:28:27;;;;;;;5.85;3.80;;;;;;;20.75;40.42;99069.38;4998376;28;20049;-75
2020/12/14 01:30:53;;;;;;;6.53;3.97;;;;;;;20.75;40.38;99081.66;4994545;28;20519;-76
2020/12/14 01:33:19;;;;;;;6.90;3.92;;;;;;;20.75;40.35;99071.13;4994416;28;20035;-73
2020/12/14 01:35:44;;;;;;;6.57;3.95;;;;;;;20.75;40.40;99066.72;4995188;28;20026;-75
2020/12/14 01:38:09;;;;;;;5.18;3.70;;;;;;;20.75;40.26;99077.25;5003090;28;20026;-75
2020/12/14 01:40:35;;;;;;;8.02;3.95;;;;;;;20.76;40.38;99065.81;4999364;28;20046;-74
2020/12/14 01:43:00;;;;;;;6.57;3.47;;;;;;;20.75;40.23;99071.13;4994828;28;20042;-80
2020/12/14 01:45:25;;;;;;;4.38;3.03;;;;;;;20.73;40.25;99068.53;4994592;28;20057;-75
2020/12/14 01:47:51;;;;;;;5.30;3.25;;;;;;;20.74;40.41;99072.88;4995157;28;20514;-73
2020/12/14 01:50:17;;;;;;;5.93;3.45;;;;;;;20.75;40.46;99073.75;4998319;28;20411;-74
2020/12/14 01:52:45;;;;;;;4.75;3.13;;;;;;;20.77;40.21;99079.84;4994916;28;20066;-74
2020/12/14 01:55:14;;;;;;;6.15;3.45;;;;;;;20.75;40.39;99079.03;4994819;28;20038;-74
2020/12/14 01:57:39;;;;;;;5.03;2.92;;;;;;;20.76;40.39;99070.25;4994540;28;20042;-73
2020/12/14 02:00:07;;;;;;;4.90;2.95;;;;;;;20.75;40.41;99079.03;4994403;28;20080;-73
2020/12/14 02:02:33;;;;;;;4.47;2.80;;;;;;;20.73;40.42;99076.44;4994448;28;20085;-79
2020/12/14 02:04:59;;;;;;;3.70;2.67;;;;;;;20.76;40.28;99075.50;4994727;28;20042;-77
2020/12/14 02:07:25;;;;;;;6.40;3.28;;;;;;;20.74;40.45;99062.34;5009542;28;20475;-75
2020/12/14 02:09:53;;;;;;;4.28;2.97;;;;;;;20.73;40.29;99054.53;4994100;28;20043;-77
2020/12/14 02:12:27;;;;;;;5.25;3.08;;;;;;;20.70;40.50;99058.16;4994538;28;20214;-79
2020/12/14 02:14:57;;;;;;;4.82;2.90;;;;;;;20.73;40.37;99051.91;4994297;28;20034;-75
2020/12/14 02:17:24;;;;;;;4.22;2.70;;;;;;;20.71;40.34;99046.69;4994428;28;20049;-74
2020/12/14 02:19:51;;;;;;;4.63;2.83;;;;;;;20.74;40.13;99032.56;4993888;28;20046;-73
2020/12/14 02:22:21;;;;;;;4.65;2.92;;;;;;;20.70;40.49;99045.00;4997120;28;20065;-73
2020/12/14 02:24:55;;;;;;;4.85;2.88;;;;;;;20.72;40.27;99047.56;5004128;28;20042;-78
2020/12/14 02:27:22;;;;;;;6.03;2.80;;;;;;;20.69;40.46;99056.44;4993937;28;20030;-73
2020/12/14 02:29:48;;;;;;;5.82;2.88;;;;;;;20.71;40.31;99059.00;4993766;28;20038;-76
2020/12/14 02:32:15;;;;;;;3.63;2.42;;;;;;;20.71;40.36;99064.28;4993690;28;20045;-74
2020/12/14 02:34:42;;;;;;;4.13;2.60;;;;;;;20.71;40.46;99061.63;4992964;28;20045;-79
2020/12/14 02:37:09;;;;;;;3.40;2.20;;;;;;;20.68;40.45;99049.47;4997050;28;20029;-80
2020/12/14 02:39:37;;;;;;;3.67;2.17;;;;;;;20.67;40.60;99048.59;4998940;28;20042;-80
2020/12/14 02:42:13;;;;;;;4.22;2.40;;;;;;;20.67;40.49;99043.34;5010260;28;20049;-73
2020/12/14 02:44:39;;;;;;;3.30;2.22;;;;;;;20.69;40.29;99043.28;5012014;28;20409;-76
2020/12/14 02:47:06;;;;;;;3.72;2.28;;;;;;;20.67;40.63;99039.84;5013298;28;20034;-76
2020/12/14 02:49:31;;;;;;;4.03;2.50;;;;;;;20.70;40.55;99052.91;5012632;28;20038;-81
2020/12/14 02:51:58;;;;;;;4.35;2.47;;;;;;;20.69;40.48;99036.22;5012553;28;20038;-80
2020/12/14 02:54:23;;;;;;;3.33;2.08;;;;;;;20.67;40.57;99034.59;5013308;28;20084;-73
2020/12/14 02:56:49;;;;;;;5.57;2.03;;;;;;;20.67;40.50;99038.06;5011717;28;20070;-74
2020/12/14 02:59:15;;;;;;;3.95;1.90;;;;;;;20.66;40.31;99044.25;5012971;28;20112;-78
2020/12/14 03:01:41;;;;;;;4.18;2.33;;;;;;;20.67;40.20;99047.75;5012833;28;20045;-73
2020/12/14 03:04:07;;;;;;;3.03;1.80;;;;;;;20.69;40.44;99043.28;5012772;28;20030;-79
2020/12/14 03:06:32;;;;;;;3.28;2.03;;;;;;;20.68;40.59;99039.78;5012637;28;20030;-74
2020/12/14 03:08:58;;;;;;;2.88;1.77;;;;;;;20.68;40.56;99044.19;5012765;28;20029;-79
2020/12/14 03:11:26;;;;;;;3.17;2.00;;;;;;;20.71;40.42;99044.06;5012933;28;20058;-76
2020/12/14 03:13:51;;;;;;;2.42;1.60;;;;;;;20.69;40.29;99038.88;5011971;28;20655;-73
2020/12/14 03:16:17;;;;;;;3.22;2.15;;;;;;;20.68;40.57;99036.31;4999276;28;20499;-73
2020/12/14 03:18:43;;;;;;;3.00;1.83;;;;;;;20.66;40.62;99036.34;4993112;28;20491;-75
2020/12/14 03:21:09;;;;;;;2.67;1.90;;;;;;;20.68;40.30;99052.94;4993009;28;20045;-74
2020/12/14 03:23:35;;;;;;;2.47;1.65;;;;;;;20.67;40.56;99056.50;4998250;28;20041;-74
2020/12/14 03:26:02;;;;;;;2.60;1.60;;;;;;;20.63;40.66;99044.38;5012445;28;20091;-74
2020/12/14 03:28:28;;;;;;;2.75;1.73;;;;;;;20.65;40.50;99045.16;5012348;28;20135;-80
2020/12/14 03:30:53;;;;;;;2.63;1.63;;;;;;;20.66;40.62;99049.50;5012623;28;20422;-74
2020/12/14 03:33:19;;;;;;;2.63;1.60;;;;;;;20.66;40.43;99041.63;5011295;28;20064;-74
2020/12/14 03:35:47;;;;;;;3.33;2.08;;;;;;;20.67;40.60;99040.69;5012378;28;20041;-73
2020/12/14 03:38:13;;;;;;;3.00;1.63;;;;;;;20.68;40.66;99041.56;4998692;28;20038;-73
2020/12/14 03:40:39;;;;;;;2.83;1.52;;;;;;;20.68;40.65;99033.69;4992676;28;20038;-78
2020/12/14 03:43:05;;;;;;;2.88;2.03;;;;;;;20.69;40.50;99041.50;4990157;28;20034;-79
2020/12/14 03:45:30;;;;;;;1.80;1.25;;;;;;;20.67;40.57;99051.22;5005889;28;20042;-74
2020/12/14 03:47:55;;;;;;;2.50;1.40;;;;;;;20.67;40.60;99040.69;4992065;28;20414;-74
2020/12/14 03:50:21;;;;;;;3.72;1.30;;;;;;;20.68;40.61;99039.78;4990738;28;20076;-73
2020/12/14 03:52:46;;;;;;;3.20;1.50;;;;;;;20.66;40.49;99041.63;4991999;28;20066;-73
2020/12/14 03:55:13;;;;;;;2.03;1.20;;;;;;;20.66;40.40;99030.25;4992671;28;20045;-73
2020/12/14 03:57:38;;;;;;;2.50;1.40;;;;;;;20.67;40.62;99037.22;4992108;28;20062;-74
2020/12/14 04:00:05;;;;;;;2.22;1.38;;;;;;;20.69;40.57;99032.75;4993889;28;20076;-75
2020/12/14 04:02:30;;;;;;;1.95;1.35;;;;;;;20.67;40.55;99030.16;5013800;28;20064;-74
2020/12/14 04:04:56;;;;;;;2.67;1.40;;;;;;;20.67;40.62;99032.81;5013515;28;20030;-73
2020/12/14 04:07:21;;;;;;;1.50;1.20;;;;;;;20.66;40.49;99038.97;5015063;28;20076;-73
2020/12/14 04:09:46;;;;;;;2.20;1.13;;;;;;;20.67;40.44;99043.34;4998201;28;20129;-75
2020/12/14 04:12:13;;;;;;;2.17;1.30;;;;;;;20.68;40.58;99033.69;4991989;28;20034;-73
2020/12/14 04:14:39;;;;;;;1.85;1.15;;;;;;;20.66;40.71;99044.25;4991898;28;20139;-74
2020/12/14 04:17:04;;;;;;;2.95;1.30;;;;;;;20.67;40.68;99043.34;4992343;28;20509;-75
2020/12/14 04:19:29;;;;;;;1.63;1.05;;;;;;;20.65;40.55;99041.69;4992368;28;20068;-75
2020/12/14 04:21:55;;;;;;;1.90;1.33;;;;;;;20.67;40.46;99038.06;4992071;28;20048;-72
2020/12/14 04:24:20;;;;;;;2.53;1.25;;;;;;;20.66;40.66;99038.97;4992137;28;20049;-73
2020/12/14 04:26:53;;;;;;;1.83;1.30;;;;;;;20.68;40.52;99037.16;4991934;28;20403;-74
2020/12/14 04:29:20;;;;;;;1.85;1.42;;;;;;;20.65;40.58;99033.78;4992354;28;20042;-73
2020/12/14 04:31:45;;;;;;;2.25;1.40;;;;;;;20.67;40.67;99024.06;4990743;28;20491;-74
2020/12/14 04:34:11;;;;;;;1.65;1.00;;;;;;;20.66;40.48;99024.97;4991996;28;20062;-73
2020/12/14 04:36:36;;;;;;;2.55;1.10;;;;;;;20.71;40.69;99032.69;4996689;28;20033;-73
2020/12/14 04:39:02;;;;;;;2.90;1.00;;;;;;;20.67;40.59;99039.84;5001061;28;20542;-73
2020/12/14 04:41:28;;;;;;;2.80;1.08;;;;;;;20.65;40.55;99034.63;4991918;28;20038;-80
2020/12/14 04:43:55;;;;;;;1.35;0.80;;;;;;;20.66;40.54;99031.09;4991404;28;20050;-73
2020/12/14 04:46:25;;;;;;;1.77;1.10;;;;;;;20.63;40.78;99031.22;4991954;28;20069;-73
2020/12/14 04:48:50;;;;;;;1.90;1.05;;;;;;;20.65;40.82;99029.38;4992075;28;20038;-75
2020/12/14 04:51:16;;;;;;;2.30;1.13;;;;;;;20.68;40.72;99020.50;4991816;28;20035;-75
2020/12/14 04:53:45;;;;;;;2.35;1.15;;;;;;;20.66;40.45;99020.56;4990507;28;20027;-75
2020/12/14 04:56:16;;;;;;;2.33;0.90;;;;;;;20.68;40.50;99026.63;4990289;28;20097;-74
2020/12/14 04:58:42;;;;;;;2.60;1.48;;;;;;;20.68;40.68;99023.97;4991555;28;20117;-76
2020/12/14 05:01:08;;;;;;;2.22;1.17;;;;;;;20.71;40.62;99027.41;4990484;28;20030;-75
2020/12/14 05:03:33;;;;;;;2.03;0.80;;;;;;;20.67;40.72;99031.97;4999503;28;20042;-77
2020/12/14 05:05:59;;;;;;;2.65;1.10;;;;;;;20.66;40.56;99027.63;5011133;28;20038;-80
2020/12/14 05:08:29;;;;;;;1.67;1.17;;;;;;;20.67;40.62;99026.69;5012205;28;20073;-73
2020/12/14 05:10:55;;;;;;;1.30;0.88;;;;;;;20.66;40.46;99015.28;5015137;28;20073;-74
2020/12/14 05:13:25;;;;;;;2.03;1.02;;;;;;;20.66;40.52;99031.09;5014902;28;20511;-79
2020/12/14 05:15:51;;;;;;;1.00;0.80;;;;;;;20.66;40.56;99025.81;5014708;28;20517;-73
2020/12/14 05:18:19;;;;;;;1.25;0.82;;;;;;;20.67;40.64;99026.69;5013713;28;20033;-75
2020/12/14 05:20:59;;;;;;;1.08;0.95;;;;;;;20.65;40.54;99041.69;5014814;28;20030;-78
2020/12/14 05:23:25;;;;;;;1.50;1.00;;;;;;;20.66;40.63;99035.50;5010840;28;20490;-73
2020/12/14 05:26:01;;;;;;;1.08;0.90;;;;;;;20.65;40.87;99031.16;4994726;28;20041;-73
2020/12/14 05:28:27;;;;;;;1.70;0.80;;;;;;;20.62;40.89;99023.38;4995099;28;20414;-78
2020/12/14 05:30:52;;;;;;;1.67;0.95;;;;;;;20.64;40.63;99030.28;4994951;28;20038;-78
2020/12/14 05:33:20;;;;;;;1.52;1.05;;;;;;;20.61;40.91;99019.91;4995143;28;20053;-81
2020/12/14 05:35:46;;;;;;;1.95;1.17;;;;;;;20.61;40.71;99022.56;4994906;28;20414;-73
2020/12/14 05:38:23;;;;;;;1.30;0.82;;;;;;;20.59;41.09;99028.78;5008729;28;20518;-75
2020/12/14 05:40:51;;;;;;;1.35;0.85;;;;;;;20.61;40.79;99027.81;5002495;28;20041;-74
2020/12/14 05:43:18;;;;;;;1.27;0.90;;;;;;;20.60;40.73;99028.72;5014469;28;20037;-73
2020/12/14 05:45:45;;;;;;;1.40;0.95;;;;;;;20.61;41.07;99021.69;5013835;28;20064;-73
2020/12/14 05:48:28;;;;;;;2.20;0.75;;;;;;;20.59;40.70;99027.00;5014664;28;20494;-73
2020/12/14 05:50:56;;;;;;;0.80;0.70;;;;;;;20.61;40.75;99032.19;5014535;28;20441;-78
2020/12/14 05:53:37;;;;;;;1.35;0.98;;;;;;;20.60;40.85;99028.72;5014162;28;20491;-73
2020/12/14 05:56:04;;;;;;;1.58;0.82;;;;;;;20.61;40.75;99022.56;5013904;28;20037;-74
2020/12/14 05:58:31;;;;;;;3.58;1.08;;;;;;;20.59;41.09;99031.41;5000328;28;20069;-75
2020/12/14 06:00:58;;;;;;;1.48;0.80;;;;;;;20.58;40.83;99033.19;4994751;28;20038;-77
2020/12/14 06:03:25;;;;;;;1.02;0.80;;;;;;;20.59;40.92;99034.91;4994333;28;20058;-81
2020/12/14 06:06:13;;;;;;;1.65;0.90;;;;;;;20.56;40.90;99029.78;4994616;28;20038;-77
2020/12/14 06:08:44;;;;;;;2.05;0.90;;;;;;;20.57;40.83;99028.84;4994400;28;20030;-79
2020/12/14 06:11:11;;;;;;;1.52;0.80;;;;;;;20.57;40.91;99022.72;4992967;28;20541;-77
2020/12/14 06:13:59;;;;;;;1.33;0.80;;;;;;;20.54;40.82;99019.31;4994239;28;20415;-74
2020/12/14 06:16:27;;;;;;;1.65;0.73;;;;;;;20.58;41.01;99022.66;4993239;28;20419;-75
2020/12/14 06:18:53;;;;;;;1.20;0.70;;;;;;;20.58;41.15;99025.31;4994684;28;20045;-73
2020/12/14 06:21:21;;;;;;;1.38;0.70;;;;;;;20.56;40.94;99031.53;4994991;28;20038;-73
2020/12/14 06:23:49;;;;;;;1.08;0.60;;;;;;;20.55;41.18;99025.44;5001538;28;20491;-80
2020/12/14 06:26:15;;;;;;;2.38;0.90;;;;;;;20.56;41.06;99019.25;5013516;28;20030;-75
2020/12/14 06:28:48;;;;;;;0.88;0.77;;;;;;;20.54;41.09;99026.34;5013705;28;20030;-75
2020/12/14 06:31:30;;;;;;;1.40;0.90;;;;;;;20.52;41.05;99020.28;5013521;28;20451;-80
2020/12/14 06:33:55;;;;;;;2.65;0.68;;;;;;;20.56;41.10;99027.13;5013533;28;20038;-74
2020/12/14 06:36:22;;;;;;;0.68;0.55;;;;;;;20.59;41.03;99031.41;5013117;28;20044;-74
2020/12/14 06:38:50;;;;;;;2.05;0.80;;;;;;;20.58;41.00;99032.31;4999565;28;20045;-74
2020/12/14 06:41:20;;;;;;;0.60;0.60;;;;;;;20.55;41.14;99033.31;4993431;28;20038;-74
2020/12/14 06:43:49;;;;;;;1.25;0.60;;;;;;;20.58;41.34;99030.56;4993371;28;20495;-75
2020/12/14 06:46:29;;;;;;;2.15;0.93;;;;;;;20.52;41.02;99018.53;4976142;28;20073;-74
2020/12/14 06:48:54;;;;;;;6.22;1.17;;;;;;;20.55;41.30;99030.69;4993355;28;20038;-79
2020/12/14 06:51:21;;;;;;;2.45;1.33;;;;;;;20.56;41.08;99031.53;4990350;28;20384;-76
2020/12/14 06:53:52;;;;;;;4.43;1.70;;;;;;;20.54;41.05;99034.22;4991165;28;20034;-75
2020/12/14 06:56:26;;;;;;;12.70;3.67;;;;;;;20.71;41.16;99036.16;4989954;28;20034;-78
2020/12/14 06:58:51;;;;;;;95.32;73.28;;;;;;;20.86;41.54;99049.66;4993683;28;20116;-78
2020/12/14 07:01:37;;;;;;;198.70;167.63;;;;;;;20.97;41.34;99036.88;4993949;28;20149;-73
2020/12/14 07:04:12;;;;;;;234.20;197.82;;;;;;;21.08;41.43;99032.00;4991509;28;20038;-77
2020/12/14 07:06:37;;;;;;;172.52;140.38;;;;;;;21.16;41.37;99036.09;4993678;28;20077;-75
2020/12/14 07:09:31;;;;;;;147.60;124.03;;;;;;;21.13;41.14;99042.31;4991606;28;20038;-77
2020/12/14 07:12:23;;;;;;;138.02;111.88;;;;;;;21.07;41.33;99035.53;4993866;28;20510;-78
2020/12/14 07:14:51;;;;;;;132.63;105.72;;;;;;;21.07;41.60;99039.97;4990141;28;20069;-73
2020/12/14 07:17:24;;;;;;;123.63;102.75;;;;;;;21.00;41.42;99039.38;4991595;28;20101;-79
2020/12/14 07:19:51;;;;;;;129.00;101.93;;;;;;;21.03;41.78;99046.28;4991968;28;20042;-75
2020/12/14 07:22:18;;;;;;;125.82;91.90;;;;;;;21.02;41.77;99037.50;4992787;28;20081;-78
2020/12/14 07:24:49;;;;;;;114.57;90.80;;;;;;;21.04;41.68;99050.63;5007324;28;20122;-78
2020/12/14 07:27:14;;;;;;;111.80;86.50;;;;;;;21.02;41.58;99049.84;4992640;28;20445;-78
2020/12/14 07:29:40;;;;;;;97.07;79.15;;;;;;;20.98;41.86;99065.78;4992906;28;20125;-79
2020/12/14 07:32:06;;;;;;;92.47;74.70;;;;;;;20.97;41.47;99071.13;4990647;28;20089;-80
2020/12/14 07:34:31;;;;;;;95.85;70.15;;;;;;;20.95;41.69;99088.75;4981586;28;20030;-80
2020/12/14 07:36:57;;;;;;;87.35;69.38;;;;;;;20.98;41.65;99081.56;4991644;28;20045;-77
2020/12/14 07:39:22;;;;;;;90.53;67.13;;;;;;;21.05;41.62;99086.59;4989657;28;20502;-79
2020/12/14 07:41:48;;;;;;;78.93;63.53;;;;;;;21.03;41.43;99083.16;4998552;28;20445;-79
2020/12/14 07:44:14;;;;;;;77.93;61.83;;;;;;;21.06;41.62;99085.66;5000858;28;20046;-79
2020/12/14 07:46:39;;;;;;;80.38;60.47;;;;;;;21.04;41.62;99088.34;4991718;28;20439;-76
2020/12/14 07:49:13;;;;;;;71.55;56.28;;;;;;;21.02;41.41;99087.56;5008084;28;20502;-76
2020/12/14 07:51:41;;;;;;;68.57;53.85;;;;;;;20.96;41.59;99096.56;5011945;28;20058;-75
2020/12/14 07:54:19;;;;;;;69.88;52.67;;;;;;;20.97;41.31;99097.44;5010180;28;20056;-78
2020/12/14 07:56:51;;;;;;;59.33;48.22;;;;;;;20.96;41.50;99104.47;5003551;28;20042;-81
2020/12/14 07:59:25;;;;;;;63.80;46.38;;;;;;;20.91;41.49;99105.59;4993004;28;20029;-75
2020/12/14 08:01:50;;;;;;;61.88;45.45;;;;;;;20.91;41.56;99114.38;4991083;28;20027;-78
2020/12/14 08:04:29;;;;;;;54.17;43.38;;;;;;;20.90;41.50;99111.78;4990436;28;20038;-75
2020/12/14 08:06:56;;;;;;;54.92;41.85;;;;;;;20.89;41.46;99108.31;4989985;28;20519;-79
2020/12/14 08:09:27;;;;;;;49.95;38.97;;;;;;;20.89;41.62;99121.47;4990184;28;20042;-76
2020/12/14 08:11:53;;;;;;;52.72;39.17;;;;;;;20.87;41.66;99115.41;4992038;28;20503;-79
2020/12/14 08:14:19;;;;;;;44.83;35.33;;;;;;;20.87;41.56;99115.41;4990671;28;20040;-77
2020/12/14 08:16:48;;;;;;;44.17;33.65;;;;;;;20.85;41.66;99106.72;5006892;28;20526;-76
2020/12/14 08:19:15;;;;;;;40.15;33.40;;;;;;;20.87;41.70;99115.41;4992056;28;20038;-77
2020/12/14 08:21:41;;;;;;;38.00;30.90;;;;;;;20.86;41.58;99112.84;4992105;28;20026;-78
2020/12/14 08:24:10;;;;;;;36.58;29.90;;;;;;;20.86;41.58;99112.84;4992289;28;20027;-73
2020/12/14 08:26:38;;;;;;;33.53;27.50;;;;;;;20.86;41.51;99124.22;4992255;28;20026;-75
2020/12/14 08:29:03;;;;;;;31.92;26.75;;;;;;;20.87;41.53;99119.81;4992064;28;20030;-74
2020/12/14 08:31:29;;;;;;;32.10;25.13;;;;;;;20.85;41.59;99111.97;4994164;28;20060;-77
2020/12/14 08:33:56;;;;;;;28.33;23.48;;;;;;;20.86;41.65;99108.41;4993445;28;20132;-77
2020/12/14 08:36:23;;;;;;;27.52;23.30;;;;;;;20.87;41.69;99111.91;5000942;28;20041;-74
2020/12/14 08:38:50;;;;;;;27.25;22.40;;;;;;;20.86;41.73;99111.06;5002327;28;20034;-79
2020/12/14 08:41:23;;;;;;;25.23;20.73;;;;;;;20.86;41.67;99116.31;5003392;28;20068;-78
2020/12/14 08:43:53;;;;;;;24.52;20.95;;;;;;;20.87;41.77;99107.50;5009577;28;20051;-78
2020/12/14 08:46:19;;;;;;;25.77;20.23;;;;;;;20.88;41.69;99103.97;4994996;28;20495;-77
2020/12/14 08:48:53;;;;;;;24.52;19.20;;;;;;;20.88;41.60;99116.25;4995481;28;20057;-80
2020/12/14 08:51:28;;;;;;;;;;;;;;;20.84;41.47;99126.06;4996318;28;20045;-77
2020/12/14 08:54:09;;;;;;;21.08;17.50;;;;;;;20.87;41.67;99120.66;4994509;28;19914;-78
2020/12/14 08:56:34;;;;;;;18.63;16.02;;;;;;;20.90;41.80;99127.56;4995814;28;20034;-77
2020/12/14 08:59:00;;;;;;;22.52;17.58;;;;;;;20.90;41.70;99133.72;4995673;28;20045;-76
2020/12/14 09:01:31;;;;;;;20.63;15.50;;;;;;;20.88;41.60;99124.16;4995310;28;20038;-78
2020/12/14 09:04:00;;;;;;;19.58;15.13;;;;;;;20.90;41.69;99149.53;4995419;28;20046;-81
2020/12/14 09:06:32;;;;;;;16.60;13.50;;;;;;;20.89;41.69;99147.81;4995691;28;20093;-78
2020/12/14 09:09:17;;;;;;;19.13;13.65;;;;;;;20.89;41.51;99163.59;5010485;28;20049;-79
2020/12/14 09:11:46;;;;;;;17.05;13.85;;;;;;;20.89;41.77;99147.81;4993249;28;20045;-75
2020/12/14 09:14:18;;;;;;;14.48;12.60;;;;;;;20.88;41.70;99147.84;4993273;28;20027;-79
2020/12/14 09:16:47;;;;;;;15.77;12.93;;;;;;;20.90;41.61;99164.44;4995062;28;20579;-78
2020/12/14 09:19:25;;;;;;;15.13;12.10;;;;;;;20.89;41.77;99163.59;4993592;28;20046;-79
2020/12/14 09:21:51;;;;;;;13.95;11.30;;;;;;;20.89;41.69;99166.22;4994007;28;20026;-80
2020/12/14 09:24:20;;;;;;;15.38;11.45;;;;;;;20.88;41.69;99171.53;5005936;28;20061;-75
2020/12/14 09:26:47;;;;;;;13.45;10.50;;;;;;;20.88;41.69;99159.25;5014486;28;20053;-75
2020/12/14 09:29:12;;;;;;;13.85;11.18;;;;;;;20.89;41.72;99168.00;5014118;28;20038;-76
2020/12/14 09:31:39;;;;;;;11.13;9.50;;;;;;;20.88;41.76;99182.94;5012823;28;20037;-80
2020/12/14 09:34:05;;;;;;;12.57;9.90;;;;;;;20.88;41.94;99167.16;5014536;28;20038;-77
2020/12/14 09:36:36;;;;;;;11.98;9.15;;;;;;;20.86;41.76;99179.53;5008412;28;20030;-73
2020/12/14 09:39:02;;;;;;;10.75;8.68;;;;;;;20.90;41.77;99167.94;5003256;28;20114;-77
2020/12/14 09:41:32;;;;;;;11.70;9.10;;;;;;;20.87;41.58;99170.69;5008049;28;20057;-77
2020/12/14 09:43:58;;;;;;;13.63;8.95;;;;;;;20.90;41.68;99164.44;5007288;28;20118;-77
2020/12/14 09:46:28;;;;;;;12.40;7.47;;;;;;;20.90;41.71;99167.06;5009119;28;20391;-76
2020/12/14 09:48:55;;;;;;;12.55;8.30;;;;;;;20.92;41.64;99168.75;4997116;28;20034;-79
2020/12/14 09:51:21;;;;;;;11.05;7.18;;;;;;;20.94;41.81;99180.06;4994853;28;20030;-80
2020/12/14 09:53:47;;;;;;;14.63;7.78;;;;;;;20.94;41.74;99173.94;4994392;28;20054;-78
2020/12/14 09:56:12;;;;;;;12.57;7.95;;;;;;;20.92;41.68;99168.75;4995140;28;20066;-75
2020/12/14 09:58:39;;;;;;;11.02;6.90;;;;;;;20.95;41.79;99173.88;4994788;28;20061;-77
2020/12/14 10:01:06;;;;;;;12.18;6.85;;;;;;;20.94;41.83;99182.69;4994948;28;20038;-75
2020/12/14 10:03:31;;;;;;;9.18;6.13;;;;;;;20.95;41.60;99188.81;4994249;28;20037;-78
2020/12/14 10:05:56;;;;;;;8.25;6.10;;;;;;;20.98;42.33;99183.44;4994354;28;20042;-79
2020/12/14 10:08:22;;;;;;;10.70;6.22;;;;;;;20.99;41.64;99191.25;4994607;28;20030;-74
2020/12/14 10:10:49;;;;;;;11.98;6.70;;;;;;;20.98;41.84;99188.72;4994570;28;20034;-79
2020/12/14 10:13:14;;;;;;;8.32;5.63;;;;;;;20.99;41.65;99180.72;4994032;28;20066;-72
2020/12/14 10:15:40;;;;;;;10.20;5.43;;;;;;;21.02;41.75;99190.28;4994123;28;20077;-79
2020/12/14 10:18:06;;;;;;;7.97;5.20;;;;;;;21.05;41.68;99181.41;4995200;28;20033;-72
2020/12/14 10:20:32;;;;;;;11.45;4.78;;;;;;;21.03;41.83;99177.97;4994762;28;20042;-73
2020/12/14 10:22:57;;;;;;;8.73;4.78;;;;;;;21.02;41.61;99185.00;4994464;28;20034;-77
2020/12/14 10:25:24;;;;;;;7.85;4.78;;;;;;;21.02;42.06;99179.75;5003437;28;20085;-79
2020/12/14 10:27:51;;;;;;;8.48;5.38;;;;;;;21.00;41.71;99186.88;4998416;28;20034;-77
2020/12/14 10:30:16;;;;;;;12.80;5.70;;;;;;;20.97;41.90;99182.56;4993798;28;20035;-77
2020/12/14 10:32:41;;;;;;;10.98;6.65;;;;;;;20.98;41.64;99168.47;4994100;28;20045;-75
2020/12/14 10:35:07;;;;;;;10.63;7.13;;;;;;;21.01;41.66;99180.69;4993858;28;20097;-78
2020/12/14 10:37:32;;;;;;;11.05;7.05;;;;;;;21.01;41.75;99180.69;5002994;28;20102;-80
2020/12/14 10:39:58;;;;;;;12.15;7.32;;;;;;;21.01;41.75;99177.19;5005945;28;20046;-77
2020/12/14 10:42:23;;;;;;;12.88;7.72;;;;;;;21.02;41.50;99176.25;5014212;28;20562;-76
2020/12/14 10:44:48;;;;;;;12.18;6.80;;;;;;;21.03;41.80;99178.81;5023944;28;20502;-76
2020/12/14 10:47:14;;;;;;;10.27;6.57;;;;;;;21.05;41.56;99178.78;5018590;28;20065;-78
2020/12/14 10:49:39;;;;;;;11.02;6.30;;;;;;;21.04;41.69;99171.78;5013055;28;20084;-77
2020/12/14 10:52:05;;;;;;;12.30;7.10;;;;;;;21.08;41.62;99179.50;4997715;28;20033;-78
2020/12/14 10:54:30;;;;;;;11.85;5.88;;;;;;;21.09;41.55;99177.75;4993622;28;20038;-80
2020/12/14 10:56:56;;;;;;;11.10;6.32;;;;;;;21.11;41.62;99168.84;4993325;28;20065;-80
2020/12/14 10:59:22;;;;;;;10.45;5.97;;;;;;;21.13;41.68;99166.13;4993491;28;20097;-78
2020/12/14 11:01:51;;;;;;;11.40;5.68;;;;;;;21.09;41.65;99162.78;4992997;28;20034;-77
2020/12/14 11:04:17;;;;;;;10.55;6.50;;;;;;;21.12;41.60;99156.50;4993252;28;20062;-79
2020/12/14 11:06:42;;;;;;;9.77;5.45;;;;;;;21.10;41.66;99151.31;4992268;28;20077;-80
2020/12/14 11:09:08;;;;;;;10.80;5.10;;;;;;;21.11;41.75;99147.78;4993082;28;20372;-77
2020/12/14 11:11:35;;;;;;;7.72;4.47;;;;;;;21.10;41.59;99146.06;4993155;28;20026;-77
2020/12/14 11:14:01;;;;;;;7.20;4.75;;;;;;;21.08;41.79;99147.88;4992546;28;20034;-78
2020/12/14 11:16:27;;;;;;;6.97;4.93;;;;;;;21.09;41.64;99146.97;4993097;28;20080;-79
2020/12/14 11:18:54;;;;;;;9.73;5.15;;;;;;;21.10;41.58;99147.81;5008315;28;20023;-76
2020/12/14 11:21:21;;;;;;;9.38;4.25;;;;;;;21.13;41.79;99148.56;4993111;28;20038;-76
2020/12/14 11:23:46;;;;;;;7.90;4.65;;;;;;;21.13;41.64;99145.94;4992951;28;20058;-79
2020/12/14 11:26:12;;;;;;;6.82;4.32;;;;;;;21.11;41.88;99136.34;4992649;28;20089;-78
2020/12/14 11:28:38;;;;;;;6.68;4.10;;;;;;;21.13;41.75;99131.88;4992944;28;20045;-81
2020/12/14 11:31:04;;;;;;;7.28;4.28;;;;;;;21.18;41.61;99126.44;4992926;28;20031;-76